Tiempo atmosférico en la estación meteorológica de Lorca, Zarcilla de Ramos, Murcia (674 m.)



Fecha
DESCASC
Temp. máxima en grados centígrados (hora)
DESCASC
Temp. mínima en grados centígrados (hora)
DESCASC
Temp. media en grados centígrados
DESCASC
Racha de viento máxima en m/sg (hora)
DESCASC
Velocidad máxima media en intervalos de 10 minutos(hora)
DESCASC
Precipitaciones diarias en mm
DESCASC
Precipitaciones de 00:00 a 06:00 en mm
DESCASC
Precipitaciones de 06:00 a 12:00 en mm
DESCASC
Precipitaciones de 12:00 a 18:00 en mm
DESCASC
Precipitaciones de 18:00 a 24:00 en mm
DESCASC
29-03-2020 18.8 (16:30) 2.4 (05:10) 10.6 7.5 (18:10) 5 (18:00) 0 0 0 0 0
28-03-2020 13.9 (14:20) 3.2 (06:40) 8.5 6.94 (04:10) 4.72 (04:10) 9 4.8 4.2 0 0
27-03-2020 8.3 (13:40) 5.4 (07:00) 6.9 5.56 (15:20) 3.61 (12:20) 10.6 0.6 1 4.8 4.2
26-03-2020 17.1 (13:10) 3.3 (00:00) 10.2 12.78 (13:30) 7.22 (12:50) 2.4 2.2 0 0 0.2
25-03-2020 13.9 (15:00) 2.6 (00:00) 8.2 8.89 (00:50) 5 (10:10) 5.2 0 0 5 0.2
24-03-2020 9.7 (15:00) 7.1 (00:00) 8.4 13.61 (06:30) 9.44 (06:30) 9.8 2 2.6 4.2 1
23-03-2020 12 (13:50) 3.7 (00:00) 7.9 8.33 (22:50) 5.28 (20:10) 12.8 0 0.6 5.6 6.6
22-03-2020 10.6 (16:40) 5.5 (04:50) 8.1 7.5 (13:30) 5 (13:10) 0.6 0 0.4 0.2 0
21-03-2020 10 (10:20) 6.6 (00:00) 8.3 10 (12:20) 6.39 (12:20) 7.8 0 0.2 7.6 0
20-03-2020 12.3 (15:30) 3 (00:00) 7.7 6.67 (18:10) 4.72 (18:00) 0 0 0 0 0
19-03-2020 13.3 (12:50) 7.1 (00:00) 10.2 7.78 (18:00) 5.83 (10:50) 0 0 0 0 0
18-03-2020 16.2 (15:30) 8.8 (00:00) 12.5 9.44 (11:00) 6.67 (16:50) 0 0 0 0 0
17-03-2020 14.5 (14:20) 3.3 (00:00) 8.9 8.06 (17:00) 5.83 (17:00) 7.2 0 0 0.2 7
16-03-2020 12.5 (10:10) 4.2 (00:00) 8.3 13.89 (10:40) 8.61 (10:40) 0.2 0 0 0.2 0
15-03-2020 19.6 (13:40) 6.9 (00:00) 13.3 8.61 (15:20) 5.83 (17:00) 0 0 0 0 0
14-03-2020 20.8 (14:20) 6.6 (00:00) 13.7 6.67 (16:50) 4.44 (17:20) 0 0 0 0 0
13-03-2020 22.5 (11:50) 8.6 (08:00) 15.6 7.22 (14:30) 5 (14:20) 0 0 0 0 0
12-03-2020 26.8 (14:50) 7.5 (00:00) 17.1 6.67 (13:50) 3.89 (15:20) 0 0 0 0 0
11-03-2020 29 (15:40) 7.8 (00:00) 18.4 7.5 (16:30) 5 (16:30) 0 0 0 0 0
10-03-2020 23.9 (15:30) 7.5 (00:00) 15.7 8.89 (00:40) 5.28 (16:00) 0 0 0 0 0
09-03-2020 23 (16:30) 8.3 (00:00) 15.7 12.78 (03:20) 7.22 (03:20) 0 0 0 0 0
08-03-2020 21.9 (14:40) 3.9 (00:00) 12.9 7.5 (01:10) 5 (01:10) 0 0 0 0 0
07-03-2020 17.1 (16:00) 4 (00:00) 10.6 14.17 (12:10) 9.44 (12:10) 0 0 0 0 0
06-03-2020 15.2 (13:10) 7.5 (00:00) 11.3 15.83 (12:50) 9.17 (11:30) 0 0 0 0 0
05-03-2020 20.2 (14:20) 9.9 (00:00) 15.1 17.5 (18:40) 10 (17:40) 0 0 0 0 0
04-03-2020 22.1 (16:00) 11.6 (00:00) 16.9 16.67 (01:30) 11.39 (01:20) 0 0 0 0 0
03-03-2020 21 (15:30) 7.8 (00:00) 14.4 18.33 (19:30) 11.11 (19:30) 0 0 0 0 0
02-03-2020 20 (15:00) 10.5 (00:00) 15.3 25.28 (09:00) 15 (09:50) 0 0 0 0 0
01-03-2020 17.6 (17:20) 11.4 (00:00) 14.5 15 (01:20) 8.61 (16:10) 0 0 0 0 0
29-02-2020 21.6 (15:20) 4.5 (00:00) 13.1 13.61 (19:10) 6.67 (17:50) 0 0 0 0 0

Gráficas

Temp. máximas Temp. mínimas Temp. medias Precipitaciones Rachas de viento máximas Velocidades máximas media en intervalos de 10 minutos

Datos horarios

Fecha y hora oficial Temperatura (ºC) Velocidad del viento (km/h) Dirección del viento Racha (km/h) Dirección de racha Precipitación (mm) Presión (hPa) Tendencia (hPa) Humedad (%)
2020-03-29 23:00:00 8.6 3 Norte 6 Norte 0 -- -- 86
2020-03-29 22:00:00 9.5 3 Norte 9 Noroeste 0 -- -- 83
2020-03-29 21:00:00 10.3 6 Este 15 Sudeste 0 -- -- 79
2020-03-29 20:00:00 13.2 11 Sudeste 24 Sudeste 0 -- -- 64
2020-03-29 19:00:00 16 17 Sudeste 27 Sudeste 0 -- -- 53
2020-03-29 18:00:00 17.8 18 Sudeste 26 Sudeste 0 -- -- 51
2020-03-29 17:00:00 18.5 5 Sur 21 Sur 0 -- -- 38
2020-03-29 16:00:00 18.4 6 Este 13 Sudeste 0 -- -- 40
2020-03-29 15:00:00 17.9 6 Sudeste 14 Sudeste 0 -- -- 41
2020-03-29 14:00:00 16.4 8 Nordeste 18 Nordeste 0 -- -- 43
2020-03-29 13:00:00 15.7 5 Sudeste 14 Norte 0 -- -- 47
2020-03-29 12:00:00 14.1 4 Norte 14 Oeste 0 -- -- 49
2020-03-29 11:00:00 12.6 11 Noroeste 18 Noroeste 0 -- -- 54
2020-03-29 10:00:00 9.9 5 Norte 17 Noroeste 0 -- -- 64
2020-03-29 09:00:00 6.7 7 Norte 16 Noroeste 0 -- -- 75
2020-03-29 08:00:00 4.8 11 Norte 17 Noroeste 0 -- -- 81
2020-03-29 07:00:00 4.9 11 Noroeste 16 Noroeste 0 -- -- 82
2020-03-29 06:00:00 2.7 2 Nordeste 8 Noroeste 0 -- -- 89
2020-03-29 05:00:00 2.8 2 Sudoeste 11 Noroeste 0 -- -- 88
2020-03-29 03:00:00 3.2 0 Calma 13 Noroeste 0 -- -- 90
2020-03-29 01:00:00 4.4 13 Noroeste 15 Noroeste 0 -- -- 89
2020-03-29 00:00:00 3.5 4 Noroeste 6 Noroeste 0 -- -- 91
2020-03-28 23:00:00 4.4 5 Noroeste 8 Noroeste 0 -- -- 91
2020-03-28 22:00:00 5.5 4 Noroeste 14 Nordeste 0 -- -- 85
2020-03-28 21:00:00 6.8 7 Noroeste 11 Noroeste 0 -- -- 78
2020-03-28 20:00:00 7.9 8 Noroeste 12 Norte 0 -- -- 76
2020-03-28 19:00:00 11 9 Norte 21 Norte 0 -- -- 55
2020-03-28 18:00:00 12.7 13 Norte 21 Norte 0 -- -- 48
2020-03-28 17:00:00 13.8 7 Este 22 Nordeste 0 -- -- 49
2020-03-28 16:00:00 12.9 5 Nordeste 20 Este 0 -- -- 53
2020-03-28 15:00:00 12.2 7 Nordeste 15 Sur 0 -- -- 57
2020-03-28 14:00:00 13.1 7 Sudeste 13 Sur 0 -- -- 57
2020-03-28 13:00:00 11.3 7 Nordeste 13 Este 0 -- -- 62
2020-03-28 12:00:00 10.1 3 Sur 14 Noroeste 0 -- -- 63
2020-03-28 11:00:00 8.5 5 Oeste 13 Noroeste 0 -- -- 74
2020-03-28 10:00:00 7.4 4 Sur 8 Sudeste 0 -- -- 86
2020-03-28 09:00:00 5.3 5 Noroeste 13 Noroeste 0 -- -- 88
2020-03-28 08:00:00 3.6 6 Noroeste 17 Noroeste 2.8 -- -- 93
2020-03-28 07:00:00 3.2 13 Noroeste 23 Norte 1.4 -- -- 93
2020-03-28 06:00:00 3.5 14 Noroeste 25 Noroeste 1.4 -- -- 93
2020-03-28 05:00:00 3.9 14 Noroeste 25 Noroeste 0.6 -- -- 92
2020-03-28 04:00:00 4.4 16 Norte 25 Norte 0.8 -- -- 92
2020-03-28 03:00:00 5.6 9 Norte 18 Norte 1.8 -- -- 96
2020-03-28 02:00:00 5.6 4 Oeste 6 Sudoeste 0.2 -- -- 95
2020-03-28 01:00:00 5.7 3 Sudoeste 9 Oeste 0 -- -- 94
2020-03-28 00:00:00 5.6 3 Sudoeste 5 Sudoeste 0 -- -- 94
2020-03-27 23:00:00 5.6 2 Noroeste 13 Noroeste 0 -- -- 93
2020-03-27 22:00:00 5.6 7 Noroeste 18 Noroeste 0.8 -- -- 93
2020-03-27 21:00:00 5.4 6 Norte 12 Norte 0.4 -- -- 91
2020-03-27 20:00:00 5.7 10 Norte 15 Norte 0.6 -- -- 90
2020-03-27 19:00:00 6.1 4 Noroeste 9 Norte 2.4 -- -- 91
2020-03-27 18:00:00 6.3 0 Calma 7 Este 2.6 -- -- 93
2020-03-27 17:00:00 6.3 8 Este 14 Este 1.2 -- -- 93
2020-03-27 16:00:00 6.3 9 Este 20 Este 0.8 -- -- 93
2020-03-27 15:00:00 6.9 13 Este 20 Este 0.2 -- -- 89
2020-03-27 14:00:00 7.8 12 Sudeste 19 Sudeste 0 -- -- 85
2020-03-27 13:00:00 7.7 10 Sudeste 18 Sur 0 -- -- 87
2020-03-27 12:00:00 7.2 12 Sur 19 Sudeste 0 -- -- 92
2020-03-27 11:00:00 6.2 10 Sur 18 Sudeste 0 -- -- 93
2020-03-27 10:00:00 6.2 11 Sudeste 18 Sudeste 0.6 -- -- 95
2020-03-27 09:00:00 5.8 6 Sudeste 9 Sudeste 0.2 -- -- 95
2020-03-27 08:00:00 5.6 4 Sur 14 Sudeste 0.2 -- -- 94
2020-03-27 07:00:00 5.4 10 Sudeste 15 Sudeste 0 -- -- 91
2020-03-27 06:00:00 5.9 11 Sudeste 16 Sudeste 0.4 -- -- 93
2020-03-27 05:00:00 6.1 2 Sudeste 10 Sur 0 -- -- 93
2020-03-27 04:00:00 6.3 7 Sur 14 Sudeste 0.2 -- -- 93
2020-03-27 03:00:00 6.6 6 Sudeste 19 Este 0 -- -- 92
2020-03-27 02:00:00 7.3 9 Sudeste 16 Este 0 -- -- 88
2020-03-27 01:00:00 7.3 7 Sudeste 15 Este 0 -- -- 86
2020-03-27 00:00:00 7.5 12 Sudeste 21 Este 0 -- -- 85
2020-03-26 23:00:00 7.9 9 Sudeste 21 Sudeste 0 -- -- 83
2020-03-26 22:00:00 9.3 7 Sudeste 13 Este 0 -- -- 85
2020-03-26 21:00:00 9.4 5 Norte 24 Nordeste 0.2 -- -- 72
2020-03-26 20:00:00 11.2 14 Norte 22 Norte 0 -- -- 51
2020-03-26 19:00:00 12.1 4 Sudoeste 12 Este 0 -- -- 57
2020-03-26 18:00:00 13.5 8 Este 22 Oeste 0 -- -- 52
2020-03-26 17:00:00 16.1 13 Oeste 25 Noroeste 0 -- -- 44
2020-03-26 16:00:00 16.6 18 Noroeste 30 Oeste 0 -- -- 43
2020-03-26 15:00:00 16 21 Noroeste 39 Oeste 0 -- -- 40
2020-03-26 14:00:00 16.6 18 Oeste 46 Noroeste 0 -- -- 44
2020-03-26 13:00:00 16.8 21 Oeste 40 Sudoeste 0 -- -- 45
2020-03-26 12:00:00 15.9 19 Oeste 36 Oeste 0 -- -- 47
2020-03-26 11:00:00 14 12 Noroeste 30 Oeste 0 -- -- 57
2020-03-26 10:00:00 13.1 13 Oeste 23 Oeste 0 -- -- 70
2020-03-26 09:00:00 9.8 4 Sudeste 9 Este 0 -- -- 85
2020-03-26 08:00:00 6.2 3 Sudoeste 13 Nordeste 0 -- -- 93
2020-03-26 07:00:00 3.9 4 Nordeste 9 Nordeste 0 -- -- 94
2020-03-26 06:00:00 3.5 7 Norte 12 Nordeste 0 -- -- 94
2020-03-26 05:00:00 4.6 10 Norte 14 Noroeste 0 -- -- 92
2020-03-26 04:00:00 5.3 6 Nordeste 24 Sudoeste 0 -- -- 88
2020-03-26 03:00:00 6.9 12 Oeste 29 Noroeste 2.2 -- -- 88
2020-03-26 02:00:00 5.6 9 Noroeste 14 Noroeste 0 -- -- 96
2020-03-26 01:00:00 5 4 Norte 8 Noroeste 0 -- -- 96
2020-03-26 00:00:00 4.3 4 Norte 6 Nordeste 0 -- -- 93
2020-03-25 23:00:00 5.8 2 Sudeste 7 Nordeste 0 -- -- 93
2020-03-25 22:00:00 6.8 3 Este 8 Sudeste 0 -- -- 93
2020-03-25 21:00:00 7 6 Sur 12 Sur 0 -- -- 92
2020-03-25 20:00:00 7.1 7 Sudeste 18 Sudeste 0 -- -- 90
2020-03-25 19:00:00 7.8 11 Sudeste 20 Este 0.2 -- -- 91
2020-03-25 18:00:00 8.4 12 Sudeste 24 Sudeste 0.2 -- -- 88
2020-03-25 17:00:00 9.4 11 Este 18 Este 4.2 -- -- 86
2020-03-25 16:00:00 10.9 5 Este 23 Este 0.6 -- -- 71
2020-03-25 15:00:00 13.9 13 Sudeste 23 Sudeste 0 -- -- 58
2020-03-25 14:00:00 13.7 7 Nordeste 17 Este 0 -- -- 56
2020-03-25 13:00:00 11.6 7 Nordeste 21 Oeste 0 -- -- 59
2020-03-25 12:00:00 11.6 8 Noroeste 28 Norte 0 -- -- 59
2020-03-25 11:00:00 10.8 18 Nordeste 24 Nordeste 0 -- -- 67
2020-03-25 10:00:00 9.4 17 Norte 24 Norte 0 -- -- 72
2020-03-25 09:00:00 7.9 12 Noroeste 19 Noroeste 0 -- -- 80
2020-03-25 08:00:00 5.4 9 Norte 17 Norte 0 -- -- 90
2020-03-25 07:00:00 3 6 Norte 10 Noroeste 0 -- -- 91
2020-03-25 06:00:00 4.7 9 Noroeste 15 Noroeste 0 -- -- 89
2020-03-25 05:00:00 5.5 8 Noroeste 16 Noroeste 0 -- -- 86
2020-03-25 04:00:00 5.2 8 Norte 14 Norte 0 -- -- 88
2020-03-25 03:00:00 6.3 10 Noroeste 19 Noroeste 0 -- -- 85
2020-03-25 02:00:00 6.7 13 Norte 24 Norte 0 -- -- 85
2020-03-25 01:00:00 7 17 Norte 32 Noroeste 0 -- -- 84
2020-03-25 00:00:00 7.1 17 Norte 33 Norte 0 -- -- 86
2020-03-24 23:00:00 7.2 26 Norte 38 Norte 0 -- -- 89
2020-03-24 22:00:00 7.5 26 Norte 39 Norte 0 -- -- 90
2020-03-24 21:00:00 7.8 25 Norte 37 Norte 0 -- -- 91
2020-03-24 20:00:00 8.4 22 Norte 36 Norte 0.2 -- -- 90
2020-03-24 19:00:00 8.9 16 Norte 27 Norte 0.8 -- -- 91
2020-03-24 18:00:00 9 4 Oeste 8 Noroeste 2 -- -- 91
2020-03-24 17:00:00 9.2 8 Nordeste 26 Nordeste 0.8 -- -- 89
2020-03-24 16:00:00 9.3 24 Nordeste 46 Norte 0.6 -- -- 84
2020-03-24 15:00:00 9.7 26 Norte 42 Norte 0.6 -- -- 84
2020-03-24 14:00:00 9.3 30 Norte 49 Norte 0.2 -- -- 87
2020-03-24 13:00:00 9.4 30 Norte 43 Norte 0 -- -- 84
2020-03-24 12:00:00 9.2 18 Norte 36 Norte 0 -- -- 88
2020-03-24 11:00:00 8.6 21 Norte 37 Nordeste 0.2 -- -- 89
2020-03-24 10:00:00 8.4 19 Nordeste 35 Nordeste 2.2 -- -- 85
2020-03-24 09:00:00 8.5 12 Nordeste 31 Nordeste 0.2 -- -- 85
2020-03-24 08:00:00 8.4 15 Nordeste 31 Nordeste 0 -- -- 88
2020-03-24 07:00:00 8.3 20 Norte 49 Norte 0 -- -- 87
2020-03-24 06:00:00 8.6 21 Norte 48 Norte 0.2 -- -- 85
2020-03-24 05:00:00 8.7 22 Norte 33 Norte 0 -- -- 84
2020-03-24 04:00:00 8.5 15 Nordeste 43 Nordeste 0 -- -- 81
2020-03-24 03:00:00 9.2 10 Oeste 39 Nordeste 0 -- -- 84
2020-03-24 02:00:00 9.2 23 Norte 36 Nordeste 0.4 -- -- 84
2020-03-24 01:00:00 9 3 Sudeste 25 Nordeste 1.4 -- -- 93
2020-03-24 00:00:00 9.1 13 Este 23 Este 0.2 -- -- 89
2020-03-23 23:00:00 9.2 15 Nordeste 30 Nordeste 0.2 -- -- 87
2020-03-23 22:00:00 8.8 13 Norte 26 Norte 1 -- -- 88
2020-03-23 21:00:00 8.5 4 Norte 28 Norte 1.2 -- -- 88
2020-03-23 20:00:00 8.6 14 Norte 26 Norte 2 -- -- 90
2020-03-23 19:00:00 8.7 8 Nordeste 14 Este 2 -- -- 90
2020-03-23 18:00:00 9.3 9 Este 19 Este 2 -- -- 92
2020-03-23 17:00:00 10.3 10 Este 22 Nordeste 0.6 -- -- 88
2020-03-23 16:00:00 10.4 7 Nordeste 24 Nordeste 0.6 -- -- 87
2020-03-23 15:00:00 11.6 10 Este 26 Nordeste 0 -- -- 74
2020-03-23 14:00:00 11.5 18 Este 26 Este 0 -- -- 75
2020-03-23 13:00:00 11 3 Noroeste 8 Oeste 2.4 -- -- 80
2020-03-23 12:00:00 10.7 2 Norte 15 Sur 0.6 -- -- 84
2020-03-23 11:00:00 10.6 4 Este 10 Este 0 -- -- 77
2020-03-23 10:00:00 7.4 0 Calma 6 Sur 0 -- -- 94
2020-03-23 09:00:00 6.3 2 Sur 12 Noroeste 0 -- -- 96
2020-03-23 08:00:00 4.9 9 Noroeste 13 Noroeste 0 -- -- 94
2020-03-23 07:00:00 3.7 7 Noroeste 13 Noroeste 0 -- -- 95
2020-03-23 06:00:00 4.7 9 Noroeste 14 Noroeste 0 -- -- 96
2020-03-23 05:00:00 4.5 11 Noroeste 15 Noroeste 0 -- -- 96
2020-03-23 04:00:00 3.9 5 Norte 8 Noroeste 0 -- -- 96
2020-03-23 03:00:00 5.3 4 Norte 6 Norte 0 -- -- 96
2020-03-23 02:00:00 6 2 Norte 4 Norte 0 -- -- 95
2020-03-23 01:00:00 7 0 Calma 4 Este 0 -- -- 94
2020-03-23 00:00:00 7.3 0 Calma 3 Nordeste 0 -- -- 93
2020-03-22 23:00:00 7.6 0 Calma 3 Este 0 -- -- 93
2020-03-22 22:00:00 7.9 2 Este 8 Este 0 -- -- 92
2020-03-22 21:00:00 8.1 3 Sudeste 10 Este 0 -- -- 90
2020-03-22 20:00:00 8.2 8 Este 16 Este 0 -- -- 89
2020-03-22 19:00:00 8.9 9 Este 19 Este 0 -- -- 86
2020-03-22 18:00:00 9.6 11 Este 21 Este 0 -- -- 82
2020-03-22 17:00:00 10.1 10 Sudeste 20 Este 0 -- -- 81
2020-03-22 16:00:00 10 12 Sudeste 21 Sudeste 0 -- -- 83
2020-03-22 15:00:00 9.2 13 Sudeste 22 Sur 0 -- -- 90
2020-03-22 14:00:00 8.6 9 Sudeste 27 Este 0 -- -- 90
2020-03-22 13:00:00 8.1 17 Este 24 Este 0.2 -- -- 90
2020-03-22 12:00:00 8.5 12 Este 17 Este 0.2 -- -- 91
2020-03-22 11:00:00 8.5 12 Sudeste 18 Este 0 -- -- 88
2020-03-22 10:00:00 8.2 11 Sudeste 16 Este 0.2 -- -- 93
2020-03-22 09:00:00 7.9 2 Nordeste 7 Noroeste 0 -- -- 90
2020-03-22 08:00:00 6.9 5 Norte 10 Noroeste 0 -- -- 93
2020-03-22 07:00:00 6.5 6 Noroeste 10 Noroeste 0 -- -- 93
2020-03-22 06:00:00 6.1 2 Norte 3 Norte 0 -- -- 95
2020-03-22 05:00:00 5.5 0 Calma 12 Noroeste 0 -- -- 93
2020-03-22 04:00:00 6.5 4 Oeste 10 Norte 0 -- -- 92
2020-03-22 03:00:00 6.6 5 Noroeste 11 Noroeste 0 -- -- 92
2020-03-22 02:00:00 6.8 7 Norte 12 Noroeste 0 -- -- 90
2020-03-22 01:00:00 6.7 6 Norte 12 Noroeste 0 -- -- 89
2020-03-22 00:00:00 7.4 8 Noroeste 13 Noroeste 0 -- -- 89
2020-03-21 23:00:00 7.6 8 Noroeste 13 Noroeste 0 -- -- 88
2020-03-21 22:00:00 7 8 Noroeste 18 Norte 0 -- -- 90
2020-03-21 21:00:00 7.5 11 Norte 18 Noroeste 0 -- -- 88
2020-03-21 20:00:00 8.5 4 Este 9 Este 0 -- -- 90
2020-03-21 19:00:00 8.7 5 Noroeste 12 Nordeste 0 -- -- 87
2020-03-21 18:00:00 9.9 10 Norte 16 Norte 0 -- -- 82
2020-03-21 17:00:00 9 5 Nordeste 28 Oeste 0.2 -- -- 84
2020-03-21 16:00:00 8.7 5 Sur 28 Noroeste 0 -- -- 86
2020-03-21 15:00:00 7.5 18 Noroeste 36 Noroeste 2.8 -- -- 90
2020-03-21 14:00:00 7.2 16 Oeste 31 Oeste 3.8 -- -- 88
2020-03-21 13:00:00 7.8 16 Oeste 36 Sudoeste 0.8 -- -- 85
2020-03-21 12:00:00 8.3 19 Oeste 34 Sudoeste 0.2 -- -- 84
2020-03-21 11:00:00 10 7 Sudoeste 9 Sudoeste 0 -- -- 85
2020-03-21 10:00:00 9.8 0 Calma 5 Sudoeste 0 -- -- 84
2020-03-21 09:00:00 9.4 2 Sudoeste 4 Sudoeste 0 -- -- 89
2020-03-21 08:00:00 8.2 3 Noroeste 12 Norte 0 -- -- 92
2020-03-21 07:00:00 8.6 0 Calma 8 Noroeste 0 -- -- 91
2020-03-21 06:00:00 8.7 4 Oeste 6 Oeste 0 -- -- 93
2020-03-21 05:00:00 8.6 4 Sudoeste 9 Sudoeste 0 -- -- 95
2020-03-21 04:00:00 8.3 2 Sudoeste 4 Sudeste 0 -- -- 94
2020-03-21 03:00:00 8.8 3 Sudeste 4 Sur 0 -- -- 93
2020-03-21 02:00:00 8.8 3 Sur 4 Sudoeste 0 -- -- 93
2020-03-21 01:00:00 9 0 Calma 5 Sudeste 0 -- -- 93
2020-03-21 00:00:00 9 4 Sudeste 8 Sur 0 -- -- 92
2020-03-20 23:00:00 9.1 4 Sudoeste 7 Sudoeste 0 -- -- 93
2020-03-20 22:00:00 9.6 4 Sudeste 21 Sudeste 0 -- -- 86
2020-03-20 21:00:00 9.7 8 Sudeste 14 Sur 0 -- -- 82
2020-03-20 20:00:00 9.2 3 Norte 17 Norte 0 -- -- 80
2020-03-20 19:00:00 10.4 14 Norte 24 Norte 0 -- -- 74
2020-03-20 18:00:00 11.1 17 Norte 23 Norte 0 -- -- 71
2020-03-20 17:00:00 11.3 13 Norte 22 Noroeste 0 -- -- 74
2020-03-20 16:00:00 12 14 Norte 22 Norte 0 -- -- 70
2020-03-20 15:00:00 11.8 9 Norte 17 Norte 0 -- -- 71
2020-03-20 14:00:00 10.6 4 Oeste 11 Sur 0 -- -- 77
2020-03-20 13:00:00 10.3 8 Sur 14 Sur 0 -- -- 80
2020-03-20 12:00:00 10.4 6 Este 22 Este 0 -- -- 74
2020-03-20 11:00:00 10.7 9 Nordeste 17 Norte 0 -- -- 71
2020-03-20 10:00:00 9.7 3 Norte 9 Nordeste 0 -- -- 78
2020-03-20 09:00:00 6.5 2 Norte 8 Noroeste 0 -- -- 94
2020-03-20 08:00:00 3.8 3 Norte 10 Noroeste 0 -- -- 93
2020-03-20 07:00:00 3 3 Norte 6 Noroeste 0 -- -- 92
2020-03-20 06:00:00 4 4 Nordeste 13 Noroeste 0 -- -- 92
2020-03-20 05:00:00 5.6 11 Noroeste 15 Noroeste 0 -- -- 92
2020-03-20 04:00:00 6.4 12 Noroeste 16 Noroeste 0 -- -- 90
2020-03-20 03:00:00 5.9 10 Noroeste 14 Noroeste 0 -- -- 90
2020-03-20 02:00:00 5.2 4 Norte 9 Nordeste 0 -- -- 91
2020-03-20 01:00:00 6.8 2 Sudeste 9 Este 0 -- -- 88
2020-03-20 00:00:00 7.2 5 Noroeste 9 Norte 0 -- -- 88
2020-03-19 23:00:00 7.5 3 Noroeste 10 Norte 0 -- -- 86
2020-03-19 22:00:00 7.9 4 Oeste 11 Noroeste 0 -- -- 84
2020-03-19 21:00:00 8.5 4 Noroeste 10 Norte 0 -- -- 79
2020-03-19 20:00:00 9.5 4 Nordeste 20 Este 0 -- -- 76
2020-03-19 19:00:00 11.4 13 Este 26 Este 0 -- -- 69
2020-03-19 18:00:00 12.9 18 Nordeste 28 Nordeste 0 -- -- 61
2020-03-19 17:00:00 12.9 10 Este 23 Nordeste 0 -- -- 62
2020-03-19 16:00:00 12.8 16 Este 21 Este 0 -- -- 64
2020-03-19 15:00:00 12.3 11 Norte 23 Norte 0 -- -- 70
2020-03-19 14:00:00 11.9 9 Norte 28 Nordeste 0 -- -- 72
2020-03-19 13:00:00 12.9 17 Nordeste 27 Nordeste 0 -- -- 66
2020-03-19 12:00:00 12.4 15 Este 28 Nordeste 0 -- -- 67
2020-03-19 11:00:00 12.4 19 Nordeste 27 Nordeste 0 -- -- 67
2020-03-19 10:00:00 11.1 10 Norte 19 Norte 0 -- -- 75
2020-03-19 09:00:00 10.2 11 Norte 18 Norte 0 -- -- 77
2020-03-19 08:00:00 8.7 8 Noroeste 13 Noroeste 0 -- -- 83
2020-03-19 07:00:00 7.6 8 Noroeste 15 Noroeste 0 -- -- 86
2020-03-19 06:00:00 7.8 6 Noroeste 13 Noroeste 0 -- -- 85
2020-03-19 05:00:00 8.2 6 Noroeste 13 Noroeste 0 -- -- 85
2020-03-19 04:00:00 8.5 10 Noroeste 16 Noroeste 0 -- -- 83
2020-03-19 03:00:00 9 10 Noroeste 16 Noroeste 0 -- -- 83
2020-03-19 02:00:00 9.2 10 Noroeste 15 Noroeste 0 -- -- 82
2020-03-19 01:00:00 9.7 10 Noroeste 17 Noroeste 0 -- -- 81
2020-03-19 00:00:00 9.6 5 Nordeste 15 Noroeste 0 -- -- 85
2020-03-18 23:00:00 10 4 Norte 10 Norte 0 -- -- 84
2020-03-18 22:00:00 9.5 6 Norte 13 Norte 0 -- -- 86
2020-03-18 21:00:00 9.3 9 Norte 16 Nordeste 0 -- -- 84
2020-03-18 20:00:00 11.3 13 Nordeste 17 Nordeste 0 -- -- 75
2020-03-18 19:00:00 12.8 12 Nordeste 25 Norte 0 -- -- 70
2020-03-18 18:00:00 13.9 16 Norte 32 Norte 0 -- -- 67
2020-03-18 17:00:00 14.7 23 Norte 32 Nordeste 0 -- -- 66
2020-03-18 16:00:00 16.1 17 Norte 28 Norte 0 -- -- 57
2020-03-18 15:00:00 15.8 19 Nordeste 28 Norte 0 -- -- 56
2020-03-18 14:00:00 14.7 18 Nordeste 31 Norte 0 -- -- 61
2020-03-18 13:00:00 15.4 14 Nordeste 27 Norte 0 -- -- 59
2020-03-18 12:00:00 13.7 20 Norte 31 Norte 0 -- -- 65
2020-03-18 11:00:00 14.7 12 Nordeste 34 Este 0 -- -- 65
2020-03-18 10:00:00 12.1 10 Norte 17 Noroeste 0 -- -- 75
2020-03-18 09:00:00 10.6 5 Noroeste 13 Norte 0 -- -- 81
2020-03-18 08:00:00 9 4 Norte 18 Nordeste 0 -- -- 87
2020-03-18 07:00:00 8.9 10 Norte 14 Norte 0 -- -- 88
2020-03-18 06:00:00 9.2 6 Nordeste 16 Norte 0 -- -- 88
2020-03-18 05:00:00 9 8 Norte 15 Norte 0 -- -- 87
2020-03-18 04:00:00 9.6 2 Norte 17 Norte 0 -- -- 83
2020-03-18 03:00:00 10.3 7 Norte 12 Norte 0 -- -- 85
2020-03-18 02:00:00 10.3 4 Nordeste 13 Norte 0 -- -- 85
2020-03-18 01:00:00 10.4 4 Norte 12 Norte 0 -- -- 86
2020-03-18 00:00:00 11.1 4 Norte 17 Este 0 -- -- 84
2020-03-17 23:00:00 11.6 4 Este 9 Nordeste 0 -- -- 92
2020-03-17 22:00:00 11.5 6 Este 12 Nordeste 0.2 -- -- 93
2020-03-17 21:00:00 11.1 5 Norte 19 Norte 1 -- -- 93
2020-03-17 20:00:00 11 5 Noroeste 24 Noroeste 5.6 -- -- 92
2020-03-17 19:00:00 11.3 16 Noroeste 25 Noroeste 0.2 -- -- 87
2020-03-17 18:00:00 11.4 15 Noroeste 28 Norte 0.2 -- -- 86
2020-03-17 17:00:00 12.2 21 Norte 29 Norte 0 -- -- 77
2020-03-17 16:00:00 12.3 15 Norte 25 Norte 0 -- -- 69
2020-03-17 15:00:00 13.3 13 Nordeste 20 Este 0 -- -- 63
2020-03-17 14:00:00 14.1 7 Norte 23 Norte 0 -- -- 53
2020-03-17 13:00:00 13 10 Norte 19 Norte 0 -- -- 62
2020-03-17 12:00:00 11.7 3 Sudeste 18 Este 0 -- -- 65
2020-03-17 11:00:00 11.4 8 Este 18 Este 0 -- -- 68
2020-03-17 10:00:00 10.3 8 Este 17 Este 0 -- -- 75
2020-03-17 09:00:00 8.4 5 Noroeste 14 Noroeste 0 -- -- 74
2020-03-17 08:00:00 6.4 8 Norte 14 Norte 0 -- -- 79
2020-03-17 07:00:00 5.4 8 Noroeste 13 Noroeste 0 -- -- 83
2020-03-17 06:00:00 5.4 6 Noroeste 14 Noroeste 0 -- -- 82
2020-03-17 05:00:00 5.9 9 Noroeste 13 Noroeste 0 -- -- 79
2020-03-17 04:00:00 5.5 2 Sudeste 13 Noroeste 0 -- -- 79
2020-03-17 03:00:00 5.7 9 Noroeste 16 Noroeste 0 -- -- 77
2020-03-17 02:00:00 5 11 Noroeste 19 Noroeste 0 -- -- 78
2020-03-17 01:00:00 3.6 8 Norte 18 Noroeste 0 -- -- 80
2020-03-17 00:00:00 4.2 12 Norte 21 Noroeste 0 -- -- 80
2020-03-16 23:00:00 4.4 13 Noroeste 20 Noroeste 0 -- -- 81
2020-03-16 22:00:00 5.1 15 Noroeste 23 Noroeste 0 -- -- 78
2020-03-16 21:00:00 5.1 7 Noroeste 22 Norte 0 -- -- 80
2020-03-16 20:00:00 6.3 11 Norte 21 Norte 0 -- -- 77
2020-03-16 19:00:00 7.8 13 Norte 22 Norte 0 -- -- 69
2020-03-16 18:00:00 9.7 14 Norte 23 Norte 0 -- -- 60
2020-03-16 17:00:00 11.1 12 Norte 24 Norte 0 -- -- 51
2020-03-16 16:00:00 10.2 12 Norte 25 Oeste 0 -- -- 49
2020-03-16 15:00:00 10.5 10 Noroeste 24 Norte 0 -- -- 43
2020-03-16 14:00:00 10.4 12 Noroeste 27 Oeste 0 -- -- 40
2020-03-16 13:00:00 10.3 11 Oeste 31 Noroeste 0.2 -- -- 38
2020-03-16 12:00:00 7.6 16 Oeste 43 Oeste 0 -- -- 71
2020-03-16 11:00:00 9.8 21 Sudoeste 50 Sudoeste 0 -- -- 64
2020-03-16 10:00:00 12.4 9 Sur 13 Sur 0 -- -- 84
2020-03-16 09:00:00 10.8 5 Sudeste 10 Sur 0 -- -- 91
2020-03-16 08:00:00 10.3 8 Sur 16 Sudeste 0 -- -- 93
2020-03-16 07:00:00 10.4 8 Sudeste 10 Sudeste 0 -- -- 90
2020-03-16 06:00:00 10.5 3 Sur 8 Este 0 -- -- 89
2020-03-16 05:00:00 10.4 3 Sudeste 6 Sudeste 0 -- -- 93
2020-03-16 04:00:00 10.4 0 Calma 4 Este 0 -- -- 93
2020-03-16 03:00:00 10.8 2 Sudeste 10 Sudeste 0 -- -- 92
2020-03-16 02:00:00 10.9 8 Sudeste 15 Sudeste 0 -- -- 92
2020-03-16 01:00:00 10.9 10 Sur 17 Sudeste 0 -- -- 92
2020-03-16 00:00:00 10.9 12 Sudeste 24 Sudeste 0 -- -- 91
2020-03-15 23:00:00 11.1 8 Sur 14 Sudeste 0 -- -- 88
2020-03-15 22:00:00 11.2 9 Norte 15 Norte 0 -- -- 87
2020-03-15 21:00:00 11.6 6 Sur 15 Sudeste 0 -- -- 83
2020-03-15 20:00:00 12.8 2 Este 9 Nordeste 0 -- -- 79
2020-03-15 19:00:00 13.7 5 Sudeste 21 Sudeste 0 -- -- 75
2020-03-15 18:00:00 14.8 13 Sudeste 28 Sudeste 0 -- -- 71
2020-03-15 17:00:00 16.3 21 Sudeste 30 Sudeste 0 -- -- 63
2020-03-15 16:00:00 18.1 20 Sudeste 31 Sudeste 0 -- -- 56
2020-03-15 15:00:00 19.3 14 Sudeste 27 Sudeste 0 -- -- 49
2020-03-15 14:00:00 19.4 15 Sudeste 25 Sudeste 0 -- -- 47
2020-03-15 13:00:00 18.9 12 Sur 20 Sudeste 0 -- -- 51
2020-03-15 12:00:00 17.2 12 Sudeste 20 Sudeste 0 -- -- 58
2020-03-15 11:00:00 16.1 6 Sudeste 13 Sur 0 -- -- 64
2020-03-15 10:00:00 13.6 3 Sudeste 6 Sudoeste 0 -- -- 73
2020-03-15 09:00:00 10.7 3 Sur 9 Norte 0 -- -- 85
2020-03-15 08:00:00 7.8 5 Noroeste 8 Noroeste 0 -- -- 95
2020-03-15 07:00:00 7.3 0 Calma 7 Norte 0 -- -- 90
2020-03-15 06:00:00 8.8 3 Norte 5 Norte 0 -- -- 90
2020-03-15 05:00:00 10.4 0 Calma 6 Norte 0 -- -- 90
2020-03-15 04:00:00 11 0 Calma 6 Nordeste 0 -- -- 90
2020-03-15 03:00:00 10.9 4 Este 11 Sudeste 0 -- -- 92
2020-03-15 02:00:00 11.3 9 Sudeste 12 Sudeste 0 -- -- 91
2020-03-15 01:00:00 11.6 5 Este 8 Este 0 -- -- 91
2020-03-15 00:00:00 12.1 3 Sudeste 9 Sudeste 0 -- -- 88
2020-03-14 23:00:00 12.4 2 Sudeste 7 Sur 0 -- -- 88
2020-03-14 22:00:00 12.5 3 Sur 6 Sur 0 -- -- 88
2020-03-14 21:00:00 12.3 0 Calma 8 Sur 0 -- -- 85
2020-03-14 20:00:00 13.7 5 Este 12 Este 0 -- -- 80
2020-03-14 19:00:00 15.8 9 Este 20 Sudeste 0 -- -- 70
2020-03-14 18:00:00 18.5 15 Sudeste 23 Sudeste 0 -- -- 58
2020-03-14 17:00:00 19.9 14 Sudeste 24 Sudeste 0 -- -- 54
2020-03-14 16:00:00 20.6 12 Sudeste 23 Sudeste 0 -- -- 49
2020-03-14 15:00:00 20.7 10 Sudeste 22 Este 0 -- -- 46
2020-03-14 14:00:00 20.4 9 Sudeste 21 Sudeste 0 -- -- 43
2020-03-14 13:00:00 19.3 9 Sudeste 17 Sur 0 -- -- 46
2020-03-14 12:00:00 17.7 8 Sur 15 Sudeste 0 -- -- 55
2020-03-14 11:00:00 15.9 7 Sudeste 14 Sudeste 0 -- -- 61
2020-03-14 10:00:00 14 6 Sudeste 9 Sudeste 0 -- -- 65
2020-03-14 09:00:00 10.6 2 Este 6 Norte 0 -- -- 75
2020-03-14 08:00:00 7.1 4 Norte 6 Norte 0 -- -- 89
2020-03-14 07:00:00 7.2 3 Oeste 10 Noroeste 0 -- -- 87
2020-03-14 06:00:00 8.1 0 Calma 12 Noroeste 0 -- -- 83
2020-03-14 05:00:00 8.8 8 Norte 13 Noroeste 0 -- -- 83
2020-03-14 04:00:00 8.8 3 Noroeste 6 Noroeste 0 -- -- 83
2020-03-14 03:00:00 8.4 2 Noroeste 7 Noroeste 0 -- -- 83
2020-03-14 02:00:00 8.9 5 Noroeste 8 Nordeste 0 -- -- 81
2020-03-14 01:00:00 9.5 0 Calma 9 Norte 0 -- -- 79
2020-03-14 00:00:00 9.2 3 Noroeste 9 Noroeste 0 -- -- 80
2020-03-13 23:00:00 10.1 3 Sur 10 Sur 0 -- -- 77
2020-03-13 22:00:00 11 6 Sudoeste 8 Sudoeste 0 -- -- 74
2020-03-13 21:00:00 12.7 4 Sur 8 Sudeste 0 -- -- 66
2020-03-13 20:00:00 13.8 3 Sudeste 10 Este 0 -- -- 62
2020-03-13 19:00:00 15 9 Sudeste 20 Este 0 -- -- 58
2020-03-13 18:00:00 16.6 13 Sudeste 25 Este 0 -- -- 55
2020-03-13 17:00:00 18.6 15 Sudeste 22 Sudeste 0 -- -- 52
2020-03-13 16:00:00 19.5 14 Sudeste 25 Este 0 -- -- 48
2020-03-13 15:00:00 20.1 17 Sudeste 26 Sudeste 0 -- -- 47
2020-03-13 14:00:00 21.2 17 Sudeste 22 Sudeste 0 -- -- 42
2020-03-13 13:00:00 20.1 15 Sudeste 23 Sudeste 0 -- -- 42
2020-03-13 12:00:00 21.9 13 Sur 19 Sur 0 -- -- 39
2020-03-13 11:00:00 21.3 7 Sudeste 13 Sur 0 -- -- 43
2020-03-13 10:00:00 17.9 4 Sur 10 Norte 0 -- -- 53
2020-03-13 09:00:00 14.3 10 Norte 15 Noroeste 0 -- -- 63
2020-03-13 08:00:00 8.6 8 Norte 10 Norte 0 -- -- 75
2020-03-13 07:00:00 12.7 9 Norte 17 Norte 0 -- -- 59
2020-03-13 06:00:00 13.3 7 Noroeste 17 Noroeste 0 -- -- 57
2020-03-13 05:00:00 10 0 Calma 10 Noroeste 0 -- -- 67
2020-03-13 04:00:00 10.4 0 Calma 9 Noroeste 0 -- -- 64
2020-03-13 03:00:00 11.2 3 Sur 12 Noroeste 0 -- -- 62
2020-03-13 02:00:00 11.3 7 Norte 12 Norte 0 -- -- 62
2020-03-13 01:00:00 11.7 2 Oeste 9 Noroeste 0 -- -- 61
2020-03-13 00:00:00 12.1 0 Calma 9 Noroeste 0 -- -- 58
2020-03-12 23:00:00 12.6 6 Noroeste 12 Noroeste 0 -- -- 58
2020-03-12 22:00:00 12.6 7 Noroeste 10 Noroeste 0 -- -- 59
2020-03-12 21:00:00 15 4 Norte 7 Norte 0 -- -- 54
2020-03-12 20:00:00 16.7 6 Norte 15 Este 0 -- -- 52
2020-03-12 19:00:00 20.5 11 Este 19 Sudeste 0 -- -- 39
2020-03-12 18:00:00 24.3 14 Sudeste 20 Sudeste 0 -- -- 32
2020-03-12 17:00:00 24.9 13 Sudeste 20 Este 0 -- -- 31
2020-03-12 16:00:00 25.7 13 Sudeste 22 Sudeste 0 -- -- 30
2020-03-12 15:00:00 26 13 Este 22 Sudeste 0 -- -- 29
2020-03-12 14:00:00 26.2 10 Sudeste 24 Sudeste 0 -- -- 29
2020-03-12 13:00:00 25.4 11 Sudeste 18 Sudeste 0 -- -- 31
2020-03-12 12:00:00 24 9 Sur 15 Sur 0 -- -- 35
2020-03-12 11:00:00 21.9 5 Este 9 Este 0 -- -- 38
2020-03-12 10:00:00 18.9 4 Sur 6 Sur 0 -- -- 49
2020-03-12 09:00:00 13 2 Sudoeste 8 Noroeste 0 -- -- 61
2020-03-12 08:00:00 9.4 7 Noroeste 10 Noroeste 0 -- -- 72
2020-03-12 07:00:00 8.5 0 Calma 4 Sudoeste 0 -- -- 71
2020-03-12 06:00:00 9.1 0 Calma 3 Sudoeste 0 -- -- 70
2020-03-12 05:00:00 9 0 Calma 3 Sudoeste 0 -- -- 71
2020-03-12 04:00:00 9.8 2 Nordeste 6 Oeste 0 -- -- 68
2020-03-12 03:00:00 9.6 4 Oeste 6 Norte 0 -- -- 70
2020-03-12 02:00:00 10.8 2 Sur 4 Sudoeste 0 -- -- 65
2020-03-12 01:00:00 12.3 3 Noroeste 9 Noroeste 0 -- -- 61
2020-03-12 00:00:00 12.6 9 Noroeste 11 Noroeste 0 -- -- 60
2020-03-11 23:00:00 12.4 6 Noroeste 12 Noroeste 0 -- -- 61
2020-03-11 22:00:00 13.8 7 Noroeste 9 Noroeste 0 -- -- 56
2020-03-11 21:00:00 14.6 6 Norte 9 Noroeste 0 -- -- 54
2020-03-11 20:00:00 17.3 5 Norte 11 Este 0 -- -- 48
2020-03-11 19:00:00 21.5 9 Este 15 Este 0 -- -- 40
2020-03-11 18:00:00 25.5 13 Sudeste 23 Sudeste 0 -- -- 29
2020-03-11 17:00:00 26.9 17 Sudeste 27 Sudeste 0 -- -- 29
2020-03-11 16:00:00 28.7 10 Sudeste 21 Sur 0 -- -- 26
2020-03-11 15:00:00 28.5 7 Sudeste 19 Este 0 -- -- 25
2020-03-11 14:00:00 28 8 Sur 15 Sudeste 0 -- -- 24
2020-03-11 13:00:00 26.6 7 Sudeste 14 Sudeste 0 -- -- 26
2020-03-11 12:00:00 25.3 6 Sur 12 Sur 0 -- -- 28
2020-03-11 11:00:00 23.1 3 Este 9 Este 0 -- -- 33
2020-03-11 10:00:00 19.6 3 Nordeste 8 Nordeste 0 -- -- 43
2020-03-11 09:00:00 14 2 Sudeste 5 Oeste 0 -- -- 58
2020-03-11 08:00:00 10.4 4 Oeste 16 Norte 0 -- -- 67
2020-03-11 07:00:00 10.2 5 Sur 20 Noroeste 0 -- -- 66
2020-03-11 06:00:00 11.9 11 Noroeste 18 Noroeste 0 -- -- 60
2020-03-11 05:00:00 9.7 5 Noroeste 10 Noroeste 0 -- -- 71
2020-03-11 04:00:00 7.9 4 Nordeste 6 Sudoeste 0 -- -- 77
2020-03-11 03:00:00 8.8 5 Nordeste 10 Norte 0 -- -- 74
2020-03-11 02:00:00 12 5 Sudoeste 20 Norte 0 -- -- 63
2020-03-11 01:00:00 11.8 12 Norte 18 Norte 0 -- -- 65
2020-03-11 00:00:00 11.5 4 Nordeste 9 Oeste 0 -- -- 68
2020-03-10 23:00:00 10.9 3 Oeste 7 Noroeste 0 -- -- 70
2020-03-10 22:00:00 11.3 3 Sudoeste 13 Noroeste 0 -- -- 68
2020-03-10 21:00:00 11.7 10 Noroeste 13 Noroeste 0 -- -- 67
2020-03-10 20:00:00 12.6 6 Norte 9 Este 0 -- -- 64
2020-03-10 19:00:00 16.5 4 Este 15 Sudeste 0 -- -- 53
2020-03-10 18:00:00 19.1 9 Este 15 Este 0 -- -- 47
2020-03-10 17:00:00 20.2 11 Sudeste 23 Sudeste 0 -- -- 46
2020-03-10 16:00:00 22.3 19 Este 27 Sudeste 0 -- -- 37
2020-03-10 15:00:00 23.5 15 Nordeste 28 Nordeste 0 -- -- 30
2020-03-10 14:00:00 22.7 12 Nordeste 29 Nordeste 0 -- -- 33
2020-03-10 13:00:00 21.2 14 Norte 28 Norte 0 -- -- 35
2020-03-10 12:00:00 20.5 13 Norte 27 Noroeste 0 -- -- 37
2020-03-10 11:00:00 17.8 16 Norte 24 Norte 0 -- -- 41
2020-03-10 10:00:00 15.8 13 Norte 19 Norte 0 -- -- 43
2020-03-10 09:00:00 13.2 10 Noroeste 15 Noroeste 0 -- -- 50
2020-03-10 08:00:00 8.3 3 Noroeste 13 Noroeste 0 -- -- 61
2020-03-10 07:00:00 8.1 11 Noroeste 17 Noroeste 0 -- -- 58
2020-03-10 06:00:00 8.5 12 Noroeste 17 Noroeste 0 -- -- 57
2020-03-10 05:00:00 10 12 Norte 19 Norte 0 -- -- 52
2020-03-10 04:00:00 10.6 15 Norte 23 Norte 0 -- -- 48
2020-03-10 03:00:00 10.6 5 Norte 26 Noroeste 0 -- -- 46
2020-03-10 02:00:00 13.4 17 Noroeste 28 Norte 0 -- -- 38
2020-03-10 01:00:00 14.2 15 Noroeste 32 Noroeste 0 -- -- 36
2020-03-10 00:00:00 12.7 9 Noroeste 19 Noroeste 0 -- -- 40
2020-03-09 23:00:00 11.9 9 Noroeste 21 Noroeste 0 -- -- 47
2020-03-09 22:00:00 13 13 Noroeste 18 Noroeste 0 -- -- 47
2020-03-09 21:00:00 13.7 13 Noroeste 21 Noroeste 0 -- -- 44
2020-03-09 20:00:00 13.2 3 Sudoeste 13 Oeste 0 -- -- 55
2020-03-09 19:00:00 15.8 4 Nordeste 18 Este 0 -- -- 50
2020-03-09 18:00:00 19.4 12 Este 19 Este 0 -- -- 41
2020-03-09 17:00:00 22 16 Sudeste 27 Sudeste 0 -- -- 30
2020-03-09 16:00:00 22.3 9 Norte 30 Norte 0 -- -- 23
2020-03-09 15:00:00 21 18 Norte 28 Nordeste 0 -- -- 28
2020-03-09 14:00:00 20.3 17 Norte 27 Sudoeste 0 -- -- 31
2020-03-09 13:00:00 20.7 11 Sudoeste 25 Sudoeste 0 -- -- 30
2020-03-09 12:00:00 19 11 Sudoeste 23 Sudoeste 0 -- -- 32
2020-03-09 11:00:00 16.5 7 Sur 18 Oeste 0 -- -- 37
2020-03-09 10:00:00 14.2 8 Oeste 17 Oeste 0 -- -- 44
2020-03-09 09:00:00 12.5 9 Oeste 21 Oeste 0 -- -- 47
2020-03-09 08:00:00 9.3 9 Noroeste 26 Noroeste 0 -- -- 56
2020-03-09 07:00:00 10.3 20 Noroeste 26 Noroeste 0 -- -- 49
2020-03-09 06:00:00 9 12 Noroeste 22 Noroeste 0 -- -- 51
2020-03-09 05:00:00 9.5 10 Norte 38 Oeste 0 -- -- 45
2020-03-09 04:00:00 13.5 22 Oeste 46 Oeste 0 -- -- 34
2020-03-09 03:00:00 13.5 21 Oeste 32 Oeste 0 -- -- 33
2020-03-09 02:00:00 13.9 15 Oeste 26 Oeste 0 -- -- 32
2020-03-09 01:00:00 14.4 13 Oeste 33 Oeste 0 -- -- 34
2020-03-09 00:00:00 14.7 10 Oeste 23 Oeste 0 -- -- 32
2020-03-08 23:00:00 16 9 Oeste 22 Oeste 0 -- -- 30
2020-03-08 22:00:00 14.9 13 Noroeste 21 Noroeste 0 -- -- 31
2020-03-08 21:00:00 12 9 Noroeste 19 Noroeste 0 -- -- 34
2020-03-08 20:00:00 10.9 8 Noroeste 16 Noroeste 0 -- -- 63
2020-03-08 19:00:00 15.8 3 Este 17 Este 0 -- -- 50
2020-03-08 18:00:00 18.8 14 Este 19 Este 0 -- -- 44
2020-03-08 17:00:00 20.8 10 Sudeste 19 Sudeste 0 -- -- 37
2020-03-08 16:00:00 21.6 14 Sudeste 25 Este 0 -- -- 33
2020-03-08 15:00:00 21.5 15 Sudeste 24 Sudeste 0 -- -- 30
2020-03-08 14:00:00 20.9 9 Este 17 Sudeste 0 -- -- 29
2020-03-08 13:00:00 19.6 6 Sur 15 Sudeste 0 -- -- 30
2020-03-08 12:00:00 17.5 6 Sudeste 12 Sudeste 0 -- -- 36
2020-03-08 11:00:00 14.8 2 Sudeste 10 Norte 0 -- -- 42
2020-03-08 10:00:00 13.3 4 Norte 14 Noroeste 0 -- -- 46
2020-03-08 09:00:00 10 4 Noroeste 18 Noroeste 0 -- -- 53
2020-03-08 08:00:00 7.8 16 Noroeste 22 Noroeste 0 -- -- 59
2020-03-08 07:00:00 5 4 Nordeste 24 Norte 0 -- -- 65
2020-03-08 06:00:00 7 5 Noroeste 19 Nordeste 0 -- -- 61
2020-03-08 05:00:00 6.8 11 Norte 15 Norte 0 -- -- 62
2020-03-08 04:00:00 8.1 13 Noroeste 23 Noroeste 0 -- -- 57
2020-03-08 03:00:00 9 13 Norte 23 Norte 0 -- -- 54
2020-03-08 02:00:00 8.2 9 Nordeste 27 Oeste 0 -- -- 57
2020-03-08 01:00:00 10.4 14 Oeste 25 Oeste 0 -- -- 51
2020-03-08 00:00:00 9.6 11 Noroeste 19 Oeste 0 -- -- 53
2020-03-07 23:00:00 9.6 11 Oeste 19 Oeste 0 -- -- 53
2020-03-07 22:00:00 8.5 3 Norte 14 Noroeste 0 -- -- 57
2020-03-07 21:00:00 10.6 3 Sudoeste 8 Oeste 0 -- -- 52
2020-03-07 20:00:00 10.7 9 Noroeste 17 Nordeste 0 -- -- 49
2020-03-07 19:00:00 12.9 15 Norte 27 Norte 0 -- -- 43
2020-03-07 18:00:00 15.8 17 Nordeste 27 Nordeste 0 -- -- 36
2020-03-07 17:00:00 16.9 15 Norte 30 Norte 0 -- -- 33
2020-03-07 16:00:00 17.1 17 Norte 35 Norte 0 -- -- 33
2020-03-07 15:00:00 16.4 28 Norte 40 Noroeste 0 -- -- 32
2020-03-07 14:00:00 15.4 28 Norte 40 Norte 0 -- -- 34
2020-03-07 13:00:00 15.2 21 Norte 51 Norte 0 -- -- 36
2020-03-07 12:00:00 14.5 28 Norte 41 Norte 0 -- -- 36
2020-03-07 11:00:00 13.7 21 Noroeste 41 Noroeste 0 -- -- 34
2020-03-07 10:00:00 12.1 23 Noroeste 38 Noroeste 0 -- -- 36
2020-03-07 09:00:00 8.4 13 Oeste 27 Oeste 0 -- -- 40
2020-03-07 08:00:00 6.6 13 Oeste 24 Oeste 0 -- -- 44
2020-03-07 07:00:00 6.4 15 Oeste 23 Oeste 0 -- -- 47
2020-03-07 06:00:00 5.5 10 Noroeste 15 Oeste 0 -- -- 54
2020-03-07 05:00:00 4 5 Norte 16 Noroeste 0 -- -- 59
2020-03-07 04:00:00 5.5 9 Norte 16 Noroeste 0 -- -- 51
2020-03-07 03:00:00 4.4 9 Noroeste 15 Noroeste 0 -- -- 51
2020-03-07 02:00:00 5.5 8 Noroeste 13 Noroeste 0 -- -- 48
2020-03-07 01:00:00 7.8 8 Noroeste 27 Noroeste 0 -- -- 42
2020-03-07 00:00:00 8.6 15 Noroeste 27 Noroeste 0 -- -- 41
2020-03-06 23:00:00 8.7 17 Noroeste 33 Norte 0 -- -- 42
2020-03-06 22:00:00 8.7 9 Noroeste 23 Noroeste 0 -- -- 44
2020-03-06 21:00:00 9 8 Noroeste 15 Norte 0 -- -- 44
2020-03-06 20:00:00 10 5 Noroeste 45 Noroeste 0 -- -- 42
2020-03-06 19:00:00 11.7 23 Noroeste 38 Noroeste 0 -- -- 37
2020-03-06 18:00:00 13.1 23 Noroeste 42 Noroeste 0 -- -- 35
2020-03-06 17:00:00 13 24 Noroeste 50 Noroeste 0 -- -- 39
2020-03-06 16:00:00 13.6 28 Oeste 49 Oeste 0 -- -- 39
2020-03-06 15:00:00 13.3 28 Noroeste 54 Noroeste 0 -- -- 39
2020-03-06 14:00:00 15.2 25 Oeste 52 Oeste 0 -- -- 34
2020-03-06 13:00:00 15 26 Oeste 57 Noroeste 0 -- -- 36
2020-03-06 12:00:00 14 24 Oeste 55 Noroeste 0 -- -- 38
2020-03-06 11:00:00 13.6 26 Oeste 43 Oeste 0 -- -- 41
2020-03-06 10:00:00 11.1 18 Sudoeste 31 Sudoeste 0 -- -- 52
2020-03-06 09:00:00 9.7 13 Oeste 25 Oeste 0 -- -- 51
2020-03-06 08:00:00 7.7 8 Oeste 30 Oeste 0 -- -- 54
2020-03-06 07:00:00 8.5 13 Oeste 34 Oeste 0 -- -- 49
2020-03-06 06:00:00 7.8 10 Oeste 32 Oeste 0 -- -- 56
2020-03-06 05:00:00 9.8 23 Oeste 38 Oeste 0 -- -- 47
2020-03-06 04:00:00 10.3 23 Oeste 37 Oeste 0 -- -- 50
2020-03-06 03:00:00 9 8 Sudoeste 17 Sudoeste 0 -- -- 60
2020-03-06 02:00:00 10 4 Oeste 23 Oeste 0 -- -- 53
2020-03-06 01:00:00 10.6 11 Oeste 26 Oeste 0 -- -- 49
2020-03-06 00:00:00 11.6 13 Oeste 47 Oeste 0 -- -- 47
2020-03-05 23:00:00 11.7 9 Norte 45 Oeste 0 -- -- 50
2020-03-05 22:00:00 12.6 21 Oeste 50 Noroeste 0 -- -- 49
2020-03-05 21:00:00 13.3 31 Oeste 51 Oeste 0 -- -- 45
2020-03-05 20:00:00 13.5 19 Oeste 41 Noroeste 0 -- -- 46
2020-03-05 19:00:00 15.2 28 Noroeste 63 Noroeste 0 -- -- 39
2020-03-05 18:00:00 17.3 30 Oeste 54 Oeste 0 -- -- 36
2020-03-05 17:00:00 19 25 Oeste 46 Oeste 0 -- -- 48
2020-03-05 16:00:00 19.7 23 Oeste 53 Oeste 0 -- -- 48
2020-03-05 15:00:00 18.8 27 Oeste 50 Oeste 0 -- -- 45
2020-03-05 14:00:00 20 26 Oeste 48 Oeste 0 -- -- 41
2020-03-05 13:00:00 19.3 12 Oeste 36 Sudoeste 0 -- -- 43
2020-03-05 12:00:00 18.8 13 Oeste 50 Oeste 0 -- -- 45
2020-03-05 11:00:00 17.4 26 Oeste 45 Oeste 0 -- -- 45
2020-03-05 10:00:00 16 13 Sur 27 Oeste 0 -- -- 51
2020-03-05 09:00:00 12.5 20 Oeste 30 Sudoeste 0 -- -- 64
2020-03-05 08:00:00 10.6 7 Nordeste 24 Norte 0 -- -- 69
2020-03-05 07:00:00 10.6 10 Noroeste 40 Oeste 0 -- -- 68
2020-03-05 06:00:00 11.2 18 Oeste 51 Oeste 0 -- -- 66
2020-03-05 05:00:00 11.1 7 Oeste 33 Oeste 0 -- -- 66
2020-03-05 04:00:00 12 21 Oeste 46 Oeste 0 -- -- 63
2020-03-05 03:00:00 11.7 6 Norte 31 Noroeste 0 -- -- 65
2020-03-05 02:00:00 11.9 15 Oeste 27 Noroeste 0 -- -- 66
2020-03-05 01:00:00 11.7 7 Noroeste 24 Oeste 0 -- -- 66
2020-03-05 00:00:00 12.7 15 Noroeste 34 Oeste 0 -- -- 61
2020-03-04 23:00:00 13.5 26 Noroeste 40 Oeste 0 -- -- 57
2020-03-04 22:00:00 14.2 21 Oeste 30 Oeste 0 -- -- 53
2020-03-04 21:00:00 15.4 13 Oeste 31 Oeste 0 -- -- 50
2020-03-04 20:00:00 16.9 22 Oeste 38 Oeste 0 -- -- 45
2020-03-04 19:00:00 18.6 22 Oeste 33 Oeste 0 -- -- 41
2020-03-04 18:00:00 21 15 Oeste 26 Sudoeste 0 -- -- 36
2020-03-04 17:00:00 21.9 15 Sudoeste 30 Sudoeste 0 -- -- 35
2020-03-04 16:00:00 22.1 16 Oeste 30 Oeste 0 -- -- 36
2020-03-04 15:00:00 21.7 15 Sudoeste 28 Oeste 0 -- -- 37
2020-03-04 14:00:00 20.9 14 Oeste 29 Sudoeste 0 -- -- 39
2020-03-04 13:00:00 20.5 15 Sudoeste 35 Sudoeste 0 -- -- 44
2020-03-04 12:00:00 18.8 15 Oeste 35 Sudoeste 0 -- -- 53
2020-03-04 11:00:00 17.1 20 Sudoeste 41 Sudoeste 0 -- -- 59
2020-03-04 10:00:00 15.6 18 Sudoeste 36 Sudoeste 0 -- -- 66
2020-03-04 09:00:00 13.2 22 Sudoeste 37 Sudoeste 0 -- -- 73
2020-03-04 08:00:00 12.8 20 Sudoeste 36 Oeste 0 -- -- 73
2020-03-04 07:00:00 12.9 21 Oeste 32 Oeste 0 -- -- 71
2020-03-04 06:00:00 12.7 13 Oeste 31 Sudoeste 0 -- -- 72
2020-03-04 05:00:00 12.7 18 Sudoeste 28 Oeste 0 -- -- 73
2020-03-04 04:00:00 12.9 15 Oeste 27 Oeste 0 -- -- 70
2020-03-04 03:00:00 13.4 12 Sudeste 54 Oeste 0 -- -- 67
2020-03-04 02:00:00 15 32 Oeste 60 Oeste 0 -- -- 60
2020-03-04 01:00:00 15 31 Oeste 51 Oeste 0 -- -- 60
2020-03-04 00:00:00 14.2 23 Sudoeste 37 Sudoeste 0 -- -- 63
2020-03-03 23:00:00 13.8 20 Sudoeste 43 Oeste 0 -- -- 62
2020-03-03 22:00:00 14.7 26 Oeste 51 Oeste 0 -- -- 58
2020-03-03 21:00:00 14.8 31 Oeste 60 Oeste 0 -- -- 57
2020-03-03 20:00:00 14.6 30 Oeste 66 Oeste 0 -- -- 57
2020-03-03 19:00:00 14.5 38 Oeste 58 Oeste 0 -- -- 55
2020-03-03 18:00:00 16.3 34 Oeste 57 Oeste 0 -- -- 48
2020-03-03 17:00:00 19.2 28 Oeste 51 Noroeste 0 -- -- 39
2020-03-03 16:00:00 20.5 23 Oeste 55 Noroeste 0 -- -- 35
2020-03-03 15:00:00 20.5 36 Oeste 55 Noroeste 0 -- -- 36
2020-03-03 14:00:00 19.8 34 Oeste 53 Oeste 0 -- -- 37
2020-03-03 13:00:00 18.8 27 Oeste 43 Oeste 0 -- -- 38
2020-03-03 12:00:00 16.1 14 Sudoeste 40 Sudoeste 0 -- -- 39
2020-03-03 11:00:00 14.9 26 Sudoeste 39 Sudoeste 0 -- -- 39
2020-03-03 10:00:00 13 20 Sudoeste 38 Sudoeste 0 -- -- 42
2020-03-03 09:00:00 9.4 17 Sur 39 Sudoeste 0 -- -- 54
2020-03-03 08:00:00 8.3 14 Oeste 23 Oeste 0 -- -- 57
2020-03-03 07:00:00 7.8 10 Oeste 35 Sudoeste 0 -- -- 58
2020-03-03 06:00:00 8.1 11 Sudoeste 29 Sudoeste 0 -- -- 55
2020-03-03 05:00:00 9 18 Sudoeste 39 Sudoeste 0 -- -- 54
2020-03-03 04:00:00 9.1 17 Sudoeste 28 Sudoeste 0 -- -- 53
2020-03-03 03:00:00 9.5 8 Oeste 35 Noroeste 0 -- -- 48
2020-03-03 02:00:00 9.9 14 Oeste 32 Oeste 0 -- -- 51
2020-03-03 01:00:00 10.4 15 Oeste 46 Noroeste 0 -- -- 51
2020-03-03 00:00:00 10.6 25 Noroeste 39 Noroeste 0 -- -- 45
2020-03-02 23:00:00 11.2 23 Oeste 40 Oeste 0 -- -- 44
2020-03-02 22:00:00 12 17 Oeste 36 Oeste 0 -- -- 43
2020-03-02 21:00:00 12.1 12 Noroeste 47 Oeste 0 -- -- 46
2020-03-02 20:00:00 13.4 21 Oeste 59 Noroeste 0 -- -- 40
2020-03-02 19:00:00 14.5 27 Oeste 51 Oeste 0 -- -- 38
2020-03-02 18:00:00 16.2 33 Oeste 67 Oeste 0 -- -- 34
2020-03-02 17:00:00 17.9 41 Oeste 66 Oeste 0 -- -- 30
2020-03-02 16:00:00 19.5 30 Oeste 68 Oeste 0 -- -- 28
2020-03-02 15:00:00 20 28 Oeste 59 Sudoeste 0 -- -- 32
2020-03-02 14:00:00 19.4 31 Oeste 68 Oeste 0 -- -- 36
2020-03-02 13:00:00 19.3 39 Oeste 87 Oeste 0 -- -- 40
2020-03-02 12:00:00 17.8 40 Oeste 88 Oeste 0 -- -- 49
2020-03-02 11:00:00 16.7 41 Oeste 89 Oeste 0 -- -- 53
2020-03-02 10:00:00 14.5 44 Oeste 88 Oeste 0 -- -- 58
2020-03-02 09:00:00 14.3 50 Oeste 91 Oeste 0 -- -- 55
2020-03-02 08:00:00 13.2 41 Oeste 80 Oeste 0 -- -- 59
2020-03-02 07:00:00 13.4 37 Oeste 69 Oeste 0 -- -- 59
2020-03-02 06:00:00 13.1 32 Oeste 69 Oeste 0 -- -- 62
2020-03-02 05:00:00 12.8 24 Sudoeste 56 Sudoeste 0 -- -- 66
2020-03-02 04:00:00 13.5 32 Sudoeste 54 Sudoeste 0 -- -- 67
2020-03-02 03:00:00 13.6 27 Sudoeste 56 Sudoeste 0 -- -- 68
2020-03-02 02:00:00 13.6 24 Sudoeste 43 Sudoeste 0 -- -- 65
2020-03-02 01:00:00 12.8 10 Sudoeste 24 Sudoeste 0 -- -- 66
2020-03-02 00:00:00 12.5 11 Sur 20 Sur 0 -- -- 64
2020-03-01 23:00:00 12.6 8 Sudoeste 21 Sudoeste 0 -- -- 62
2020-03-01 22:00:00 12.4 6 Sudoeste 28 Oeste 0 -- -- 62
2020-03-01 21:00:00 13.3 17 Sudoeste 27 Sudoeste 0 -- -- 59
2020-03-01 20:00:00 13.5 13 Sudoeste 30 Oeste 0 -- -- 58
2020-03-01 19:00:00 14.6 17 Sudoeste 28 Sudoeste 0 -- -- 54
2020-03-01 18:00:00 17.1 11 Oeste 44 Oeste 0 -- -- 45
2020-03-01 17:00:00 17.2 23 Sudoeste 48 Sudoeste 0 -- -- 47
2020-03-01 16:00:00 17.2 27 Sudoeste 42 Oeste 0 -- -- 47
2020-03-01 15:00:00 17 9 Oeste 30 Oeste 0 -- -- 46
2020-03-01 14:00:00 16 17 Sudoeste 32 Sudoeste 0 -- -- 51
2020-03-01 13:00:00 16.4 19 Oeste 35 Sudoeste 0 -- -- 49
2020-03-01 12:00:00 16.6 22 Sudoeste 35 Oeste 0 -- -- 48
2020-03-01 11:00:00 16 16 Sur 29 Sudoeste 0 -- -- 53
2020-03-01 10:00:00 12.9 15 Sudoeste 35 Oeste 0 -- -- 59
2020-03-01 09:00:00 11.7 21 Sudoeste 36 Sudoeste 0 -- -- 64
2020-03-01 08:00:00 11.4 19 Oeste 39 Oeste 0 -- -- 66
2020-03-01 07:00:00 11.8 19 Oeste 29 Oeste 0 -- -- 66
2020-03-01 06:00:00 12.1 2 Oeste 22 Oeste 0 -- -- 66
2020-03-01 05:00:00 12.7 8 Oeste 42 Oeste 0 -- -- 68
2020-03-01 04:00:00 13.2 30 Oeste 54 Oeste 0 -- -- 67
2020-03-01 03:00:00 12.9 22 Oeste 45 Oeste 0 -- -- 68
2020-03-01 02:00:00 13.2 23 Oeste 54 Oeste 0 -- -- 68
2020-03-01 01:00:00 13.3 25 Oeste 40 Oeste 0 -- -- 68
2020-03-01 00:00:00 14 5 Sudeste 23 Sudoeste 0 -- -- 64
2020-02-29 23:00:00 14.8 11 Sudoeste 44 Oeste 0 -- -- 59
2020-02-29 22:00:00 15.4 15 Sudoeste 42 Sudoeste 0 -- -- 58
2020-02-29 21:00:00 16.1 12 Oeste 39 Oeste 0 -- -- 48
2020-02-29 20:00:00 16.9 18 Oeste 49 Sudoeste 0 -- -- 40
2020-02-29 19:00:00 17.9 19 Sudoeste 38 Oeste 0 -- -- 38
2020-02-29 18:00:00 19 22 Sudoeste 38 Sudoeste 0 -- -- 34
2020-02-29 17:00:00 20.3 21 Sudoeste 39 Sudoeste 0 -- -- 30
2020-02-29 16:00:00 21.4 22 Sudoeste 37 Sudoeste 0 -- -- 29
2020-02-29 15:00:00 21.5 20 Sudoeste 34 Sudoeste 0 -- -- 28
2020-02-29 14:00:00 20.9 18 Sudoeste 31 Sudoeste 0 -- -- 28
2020-02-29 13:00:00 20.5 10 Sudoeste 37 Sudoeste 0 -- -- 27
2020-02-29 12:00:00 19.2 21 Oeste 45 Oeste 0 -- -- 28
2020-02-29 11:00:00 16.5 18 Oeste 38 Sudoeste 0 -- -- 31
2020-02-29 10:00:00 14.1 5 Oeste 16 Norte 0 -- -- 38
2020-02-29 09:00:00 9.7 5 Norte 17 Sur 0 -- -- 51
2020-02-29 08:00:00 8.4 8 Norte 13 Noroeste 0 -- -- 51
2020-02-29 07:00:00 6.5 4 Norte 17 Oeste 0 -- -- 59
2020-02-29 06:00:00 8.3 12 Noroeste 18 Noroeste 0 -- -- 55
2020-02-29 05:00:00 6.2 4 Noroeste 13 Noroeste 0 -- -- 61
2020-02-29 04:00:00 4.5 6 Noroeste 17 Noroeste 0 -- -- 75
2020-02-29 03:00:00 7.4 14 Noroeste 18 Noroeste 0 -- -- 64
2020-02-29 02:00:00 6.7 7 Norte 12 Noroeste 0 -- -- 67
2020-02-29 01:00:00 7.1 5 Noroeste 8 Noroeste 0 -- -- 67
2020-02-29 00:00:00 6.4 4 Noroeste 8 Noroeste 0 -- -- 69